sensor_id;sensor_type;location;lat;lon;timestamp;temperature;humidity
22153;DHT22;11242;50.536;12.688;2022-10-29T00:01:59;17.50;99.90
22153;DHT22;11242;50.536;12.688;2022-10-29T00:04:25;17.50;99.90
22153;DHT22;11242;50.536;12.688;2022-10-29T00:06:51;17.40;99.90
22153;DHT22;11242;50.536;12.688;2022-10-29T00:09:16;17.40;99.90
22153;DHT22;11242;50.536;12.688;2022-10-29T00:11:42;17.60;99.90
22153;DHT22;11242;50.536;12.688;2022-10-29T00:14:07;17.50;99.90
22153;DHT22;11242;50.536;12.688;2022-10-29T00:16:36;17.50;99.90
22153;DHT22;11242;50.536;12.688;2022-10-29T00:19:02;17.40;99.90
22153;DHT22;11242;50.536;12.688;2022-10-29T00:21:29;17.40;99.90
22153;DHT22;11242;50.536;12.688;2022-10-29T00:23:55;17.40;99.90
22153;DHT22;11242;50.536;12.688;2022-10-29T00:26:23;17.30;99.90
22153;DHT22;11242;50.536;12.688;2022-10-29T00:28:53;17.30;99.90
22153;DHT22;11242;50.536;12.688;2022-10-29T00:31:19;17.20;99.90
22153;DHT22;11242;50.536;12.688;2022-10-29T00:33:48;17.10;99.90
22153;DHT22;11242;50.536;12.688;2022-10-29T00:36:17;17.00;99.90
22153;DHT22;11242;50.536;12.688;2022-10-29T00:38:42;16.90;99.90
22153;DHT22;11242;50.536;12.688;2022-10-29T00:41:12;16.90;99.90
22153;DHT22;11242;50.536;12.688;2022-10-29T00:43:39;16.80;99.90
22153;DHT22;11242;50.536;12.688;2022-10-29T00:46:11;16.80;99.90
22153;DHT22;11242;50.536;12.688;2022-10-29T00:48:46;16.70;99.90
22153;DHT22;11242;50.536;12.688;2022-10-29T00:51:14;16.60;99.90
22153;DHT22;11242;50.536;12.688;2022-10-29T00:53:46;16.50;99.90
22153;DHT22;11242;50.536;12.688;2022-10-29T00:56:14;16.50;99.90
22153;DHT22;11242;50.536;12.688;2022-10-29T00:58:40;16.50;99.90
22153;DHT22;11242;50.536;12.688;2022-10-29T01:01:07;16.50;99.90
22153;DHT22;11242;50.536;12.688;2022-10-29T01:03:32;16.60;99.90
22153;DHT22;11242;50.536;12.688;2022-10-29T01:05:59;16.70;99.90
22153;DHT22;11242;50.536;12.688;2022-10-29T01:08:26;16.60;99.90
22153;DHT22;11242;50.536;12.688;2022-10-29T01:19:47;16.40;99.90
22153;DHT22;11242;50.536;12.688;2022-10-29T01:24:58;16.40;99.90
22153;DHT22;11242;50.536;12.688;2022-10-29T01:27:30;16.30;99.90
22153;DHT22;11242;50.536;12.688;2022-10-29T01:35:57;16.30;99.90
22153;DHT22;11242;50.536;12.688;2022-10-29T01:38:42;16.40;99.90
22153;DHT22;11242;50.536;12.688;2022-10-29T01:41:19;16.30;99.90
22153;DHT22;11242;50.536;12.688;2022-10-29T01:43:50;16.20;99.90
22153;DHT22;11242;50.536;12.688;2022-10-29T01:46:24;16.00;99.90
22153;DHT22;11242;50.536;12.688;2022-10-29T01:48:53;15.90;99.90
22153;DHT22;11242;50.536;12.688;2022-10-29T01:51:23;15.80;99.90
22153;DHT22;11242;50.536;12.688;2022-10-29T01:53:51;15.80;99.90
22153;DHT22;11242;50.536;12.688;2022-10-29T01:56:16;15.80;99.90
22153;DHT22;11242;50.536;12.688;2022-10-29T01:58:56;15.70;99.90
22153;DHT22;11242;50.536;12.688;2022-10-29T02:01:45;15.60;99.90
22153;DHT22;11242;50.536;12.688;2022-10-29T02:04:23;15.30;99.90
22153;DHT22;11242;50.536;12.688;2022-10-29T02:07:06;15.10;99.90
22153;DHT22;11242;50.536;12.688;2022-10-29T02:10:01;14.90;99.90
22153;DHT22;11242;50.536;12.688;2022-10-29T02:12:35;14.80;99.90
22153;DHT22;11242;50.536;12.688;2022-10-29T02:15:07;14.70;99.90
22153;DHT22;11242;50.536;12.688;2022-10-29T02:17:34;14.60;99.90
22153;DHT22;11242;50.536;12.688;2022-10-29T02:20:06;14.40;99.90
22153;DHT22;11242;50.536;12.688;2022-10-29T02:22:32;14.30;99.90
22153;DHT22;11242;50.536;12.688;2022-10-29T02:24:57;14.30;99.90
22153;DHT22;11242;50.536;12.688;2022-10-29T02:27:23;14.20;99.90
22153;DHT22;11242;50.536;12.688;2022-10-29T02:29:48;14.30;99.90
22153;DHT22;11242;50.536;12.688;2022-10-29T02:32:14;14.20;99.90
22153;DHT22;11242;50.536;12.688;2022-10-29T02:34:39;14.20;99.90
22153;DHT22;11242;50.536;12.688;2022-10-29T02:37:05;14.10;99.90
22153;DHT22;11242;50.536;12.688;2022-10-29T02:39:31;14.00;99.90
22153;DHT22;11242;50.536;12.688;2022-10-29T02:41:57;14.00;99.90
22153;DHT22;11242;50.536;12.688;2022-10-29T02:44:22;13.90;99.90
22153;DHT22;11242;50.536;12.688;2022-10-29T02:46:48;13.80;99.90
22153;DHT22;11242;50.536;12.688;2022-10-29T02:49:13;13.70;99.90
22153;DHT22;11242;50.536;12.688;2022-10-29T02:51:39;13.60;99.90
22153;DHT22;11242;50.536;12.688;2022-10-29T02:54:05;13.50;99.90
22153;DHT22;11242;50.536;12.688;2022-10-29T02:56:30;13.40;99.90
22153;DHT22;11242;50.536;12.688;2022-10-29T02:58:56;13.30;99.90
22153;DHT22;11242;50.536;12.688;2022-10-29T03:01:21;13.20;99.90
22153;DHT22;11242;50.536;12.688;2022-10-29T03:03:47;13.10;99.90
22153;DHT22;11242;50.536;12.688;2022-10-29T03:06:14;13.00;99.90
22153;DHT22;11242;50.536;12.688;2022-10-29T03:08:40;13.00;99.90
22153;DHT22;11242;50.536;12.688;2022-10-29T03:11:05;12.90;99.90
22153;DHT22;11242;50.536;12.688;2022-10-29T03:13:31;12.70;99.90
22153;DHT22;11242;50.536;12.688;2022-10-29T03:15:57;12.70;99.90
22153;DHT22;11242;50.536;12.688;2022-10-29T03:18:22;12.60;99.90
22153;DHT22;11242;50.536;12.688;2022-10-29T03:20:48;12.50;99.90
22153;DHT22;11242;50.536;12.688;2022-10-29T03:23:13;12.40;99.90
22153;DHT22;11242;50.536;12.688;2022-10-29T03:25:39;12.30;99.90
22153;DHT22;11242;50.536;12.688;2022-10-29T03:28:05;12.10;99.90
22153;DHT22;11242;50.536;12.688;2022-10-29T03:30:30;12.10;99.90
22153;DHT22;11242;50.536;12.688;2022-10-29T03:32:56;12.10;99.90
22153;DHT22;11242;50.536;12.688;2022-10-29T03:35:22;12.00;99.90
22153;DHT22;11242;50.536;12.688;2022-10-29T03:37:51;12.00;99.90
22153;DHT22;11242;50.536;12.688;2022-10-29T03:40:17;11.90;99.90
22153;DHT22;11242;50.536;12.688;2022-10-29T03:42:43;11.80;99.90
22153;DHT22;11242;50.536;12.688;2022-10-29T03:45:09;11.80;99.90
22153;DHT22;11242;50.536;12.688;2022-10-29T03:47:35;11.80;99.90
22153;DHT22;11242;50.536;12.688;2022-10-29T03:50:01;11.70;99.90
22153;DHT22;11242;50.536;12.688;2022-10-29T03:52:28;11.60;99.90
22153;DHT22;11242;50.536;12.688;2022-10-29T03:54:53;11.70;99.90
22153;DHT22;11242;50.536;12.688;2022-10-29T03:57:19;11.70;99.90
22153;DHT22;11242;50.536;12.688;2022-10-29T03:59:44;11.70;99.90
22153;DHT22;11242;50.536;12.688;2022-10-29T04:02:10;11.70;99.90
22153;DHT22;11242;50.536;12.688;2022-10-29T04:04:37;11.70;99.90
22153;DHT22;11242;50.536;12.688;2022-10-29T04:07:03;11.70;99.90
22153;DHT22;11242;50.536;12.688;2022-10-29T04:09:29;11.70;99.90
22153;DHT22;11242;50.536;12.688;2022-10-29T04:11:55;11.60;99.90
22153;DHT22;11242;50.536;12.688;2022-10-29T04:14:20;11.60;99.90
22153;DHT22;11242;50.536;12.688;2022-10-29T04:16:46;11.60;99.90
22153;DHT22;11242;50.536;12.688;2022-10-29T04:19:11;11.60;99.90
22153;DHT22;11242;50.536;12.688;2022-10-29T04:21:37;11.60;99.90
22153;DHT22;11242;50.536;12.688;2022-10-29T04:24:03;11.70;99.90
22153;DHT22;11242;50.536;12.688;2022-10-29T04:26:28;11.80;99.90
22153;DHT22;11242;50.536;12.688;2022-10-29T04:28:54;11.80;99.90
22153;DHT22;11242;50.536;12.688;2022-10-29T04:31:20;11.90;99.90
22153;DHT22;11242;50.536;12.688;2022-10-29T04:33:45;11.90;99.90
22153;DHT22;11242;50.536;12.688;2022-10-29T04:36:11;12.00;99.90
22153;DHT22;11242;50.536;12.688;2022-10-29T04:38:37;12.00;99.90
22153;DHT22;11242;50.536;12.688;2022-10-29T04:41:03;12.10;99.90
22153;DHT22;11242;50.536;12.688;2022-10-29T04:43:29;12.20;99.90
22153;DHT22;11242;50.536;12.688;2022-10-29T04:45:56;12.20;99.90
22153;DHT22;11242;50.536;12.688;2022-10-29T04:48:23;12.20;99.90
22153;DHT22;11242;50.536;12.688;2022-10-29T04:50:49;12.30;99.90
22153;DHT22;11242;50.536;12.688;2022-10-29T04:53:15;12.30;99.90
22153;DHT22;11242;50.536;12.688;2022-10-29T04:55:41;12.30;99.90
22153;DHT22;11242;50.536;12.688;2022-10-29T04:58:11;12.20;99.90
22153;DHT22;11242;50.536;12.688;2022-10-29T05:00:37;12.20;99.90
22153;DHT22;11242;50.536;12.688;2022-10-29T05:03:03;12.10;99.90
22153;DHT22;11242;50.536;12.688;2022-10-29T05:05:29;12.10;99.90
22153;DHT22;11242;50.536;12.688;2022-10-29T05:08:02;12.00;99.90
22153;DHT22;11242;50.536;12.688;2022-10-29T05:10:30;11.90;99.90
22153;DHT22;11242;50.536;12.688;2022-10-29T05:12:58;11.80;99.90
22153;DHT22;11242;50.536;12.688;2022-10-29T05:15:24;11.80;99.90
22153;DHT22;11242;50.536;12.688;2022-10-29T05:17:49;11.70;99.90
22153;DHT22;11242;50.536;12.688;2022-10-29T05:20:15;11.70;99.90
22153;DHT22;11242;50.536;12.688;2022-10-29T05:22:40;11.50;99.90
22153;DHT22;11242;50.536;12.688;2022-10-29T05:25:06;11.40;99.90
22153;DHT22;11242;50.536;12.688;2022-10-29T05:27:32;11.40;99.90
22153;DHT22;11242;50.536;12.688;2022-10-29T05:29:57;11.40;99.90
22153;DHT22;11242;50.536;12.688;2022-10-29T05:32:23;11.40;99.90
22153;DHT22;11242;50.536;12.688;2022-10-29T05:34:48;11.30;99.90
22153;DHT22;11242;50.536;12.688;2022-10-29T05:37:14;11.20;99.90
22153;DHT22;11242;50.536;12.688;2022-10-29T05:39:39;11.20;99.90
22153;DHT22;11242;50.536;12.688;2022-10-29T05:42:05;11.20;99.90
22153;DHT22;11242;50.536;12.688;2022-10-29T05:44:31;11.20;99.90
22153;DHT22;11242;50.536;12.688;2022-10-29T05:46:56;11.20;99.90
22153;DHT22;11242;50.536;12.688;2022-10-29T05:49:22;11.10;99.90
22153;DHT22;11242;50.536;12.688;2022-10-29T05:51:47;11.10;99.90
22153;DHT22;11242;50.536;12.688;2022-10-29T05:54:13;11.10;99.90
22153;DHT22;11242;50.536;12.688;2022-10-29T05:56:38;11.00;99.90
22153;DHT22;11242;50.536;12.688;2022-10-29T05:59:04;11.00;99.90
22153;DHT22;11242;50.536;12.688;2022-10-29T06:01:30;11.00;99.90
22153;DHT22;11242;50.536;12.688;2022-10-29T06:03:56;11.00;99.90
22153;DHT22;11242;50.536;12.688;2022-10-29T06:06:22;11.00;99.90
22153;DHT22;11242;50.536;12.688;2022-10-29T06:08:47;11.00;99.90
22153;DHT22;11242;50.536;12.688;2022-10-29T06:11:13;11.00;99.90
22153;DHT22;11242;50.536;12.688;2022-10-29T06:13:38;11.00;99.90
22153;DHT22;11242;50.536;12.688;2022-10-29T06:16:04;11.10;99.90
22153;DHT22;11242;50.536;12.688;2022-10-29T06:18:30;11.20;99.90
22153;DHT22;11242;50.536;12.688;2022-10-29T06:20:59;11.20;99.90
22153;DHT22;11242;50.536;12.688;2022-10-29T06:23:25;11.20;99.90
22153;DHT22;11242;50.536;12.688;2022-10-29T06:25:51;11.30;99.90
22153;DHT22;11242;50.536;12.688;2022-10-29T06:28:17;11.30;99.90
22153;DHT22;11242;50.536;12.688;2022-10-29T06:30:48;11.40;99.90
22153;DHT22;11242;50.536;12.688;2022-10-29T06:33:14;11.50;99.90
22153;DHT22;11242;50.536;12.688;2022-10-29T06:35:40;11.50;99.90
22153;DHT22;11242;50.536;12.688;2022-10-29T06:38:05;11.50;99.90
22153;DHT22;11242;50.536;12.688;2022-10-29T06:40:31;11.50;99.90
22153;DHT22;11242;50.536;12.688;2022-10-29T06:43:01;11.60;99.90
22153;DHT22;11242;50.536;12.688;2022-10-29T06:45:28;11.60;99.90
22153;DHT22;11242;50.536;12.688;2022-10-29T06:47:54;11.60;99.90
22153;DHT22;11242;50.536;12.688;2022-10-29T06:50:19;11.80;99.90
22153;DHT22;11242;50.536;12.688;2022-10-29T06:52:55;11.90;99.90
22153;DHT22;11242;50.536;12.688;2022-10-29T06:55:21;12.10;99.90
22153;DHT22;11242;50.536;12.688;2022-10-29T06:57:47;12.60;99.90
22153;DHT22;11242;50.536;12.688;2022-10-29T07:00:12;13.30;99.90
22153;DHT22;11242;50.536;12.688;2022-10-29T07:02:38;14.00;99.90
22153;DHT22;11242;50.536;12.688;2022-10-29T07:05:04;14.80;99.90
22153;DHT22;11242;50.536;12.688;2022-10-29T07:07:29;15.00;99.90
22153;DHT22;11242;50.536;12.688;2022-10-29T07:09:55;15.30;99.90
22153;DHT22;11242;50.536;12.688;2022-10-29T07:12:20;16.10;99.90
22153;DHT22;11242;50.536;12.688;2022-10-29T07:14:46;16.40;99.90
22153;DHT22;11242;50.536;12.688;2022-10-29T07:17:11;16.60;99.90
22153;DHT22;11242;50.536;12.688;2022-10-29T07:19:37;16.60;99.90
22153;DHT22;11242;50.536;12.688;2022-10-29T07:22:02;17.10;99.90
22153;DHT22;11242;50.536;12.688;2022-10-29T07:24:28;17.80;99.90
22153;DHT22;11242;50.536;12.688;2022-10-29T07:26:54;18.20;99.90
22153;DHT22;11242;50.536;12.688;2022-10-29T07:29:19;18.60;99.90
22153;DHT22;11242;50.536;12.688;2022-10-29T07:31:45;19.40;99.90
22153;DHT22;11242;50.536;12.688;2022-10-29T07:34:10;20.00;99.90
22153;DHT22;11242;50.536;12.688;2022-10-29T07:36:36;20.60;99.90
22153;DHT22;11242;50.536;12.688;2022-10-29T07:39:02;20.50;99.90
22153;DHT22;11242;50.536;12.688;2022-10-29T07:41:28;20.70;99.90
22153;DHT22;11242;50.536;12.688;2022-10-29T07:43:53;21.10;99.90
22153;DHT22;11242;50.536;12.688;2022-10-29T07:46:19;21.40;99.90
22153;DHT22;11242;50.536;12.688;2022-10-29T07:48:44;21.20;99.90
22153;DHT22;11242;50.536;12.688;2022-10-29T07:51:11;21.60;99.90
22153;DHT22;11242;50.536;12.688;2022-10-29T07:53:37;20.90;99.90
22153;DHT22;11242;50.536;12.688;2022-10-29T07:56:02;20.10;99.90
22153;DHT22;11242;50.536;12.688;2022-10-29T07:58:28;20.00;99.90
22153;DHT22;11242;50.536;12.688;2022-10-29T08:00:53;19.80;99.90
22153;DHT22;11242;50.536;12.688;2022-10-29T08:03:19;19.80;99.90
22153;DHT22;11242;50.536;12.688;2022-10-29T08:05:45;19.40;99.90
22153;DHT22;11242;50.536;12.688;2022-10-29T08:08:13;19.30;99.90
22153;DHT22;11242;50.536;12.688;2022-10-29T08:10:39;19.50;99.90
22153;DHT22;11242;50.536;12.688;2022-10-29T08:13:05;19.70;99.90
22153;DHT22;11242;50.536;12.688;2022-10-29T08:15:32;19.20;99.90
22153;DHT22;11242;50.536;12.688;2022-10-29T08:17:59;18.70;99.90
22153;DHT22;11242;50.536;12.688;2022-10-29T08:20:26;18.40;99.90
22153;DHT22;11242;50.536;12.688;2022-10-29T08:22:52;19.10;99.90
22153;DHT22;11242;50.536;12.688;2022-10-29T08:25:18;20.60;99.90
22153;DHT22;11242;50.536;12.688;2022-10-29T08:27:44;21.80;99.90
22153;DHT22;11242;50.536;12.688;2022-10-29T08:30:11;22.90;99.90
22153;DHT22;11242;50.536;12.688;2022-10-29T08:32:46;23.60;99.90
22153;DHT22;11242;50.536;12.688;2022-10-29T08:35:13;23.80;99.90
22153;DHT22;11242;50.536;12.688;2022-10-29T08:37:42;24.00;99.90
22153;DHT22;11242;50.536;12.688;2022-10-29T08:43:31;24.70;98.90
22153;DHT22;11242;50.536;12.688;2022-10-29T08:45:59;24.10;97.80
22153;DHT22;11242;50.536;12.688;2022-10-29T08:48:35;23.30;99.90
22153;DHT22;11242;50.536;12.688;2022-10-29T08:53:51;22.50;99.90
22153;DHT22;11242;50.536;12.688;2022-10-29T08:56:20;21.70;99.90
22153;DHT22;11242;50.536;12.688;2022-10-29T09:01:17;20.50;99.90
22153;DHT22;11242;50.536;12.688;2022-10-29T09:03:45;19.90;99.90
22153;DHT22;11242;50.536;12.688;2022-10-29T09:06:13;20.00;99.90
22153;DHT22;11242;50.536;12.688;2022-10-29T09:09:02;20.00;99.90
22153;DHT22;11242;50.536;12.688;2022-10-29T09:11:59;20.10;99.90
22153;DHT22;11242;50.536;12.688;2022-10-29T09:20:26;20.10;99.90
22153;DHT22;11242;50.536;12.688;2022-10-29T09:23:39;20.50;99.90
22153;DHT22;11242;50.536;12.688;2022-10-29T09:26:15;20.60;99.90
22153;DHT22;11242;50.536;12.688;2022-10-29T09:29:17;20.60;99.90
22153;DHT22;11242;50.536;12.688;2022-10-29T09:31:50;20.60;99.90
22153;DHT22;11242;50.536;12.688;2022-10-29T09:34:44;20.70;99.90
22153;DHT22;11242;50.536;12.688;2022-10-29T09:39:41;20.70;99.90
22153;DHT22;11242;50.536;12.688;2022-10-29T09:42:12;20.60;99.90
22153;DHT22;11242;50.536;12.688;2022-10-29T09:44:54;20.50;99.90
22153;DHT22;11242;50.536;12.688;2022-10-29T09:52:30;20.90;99.90
22153;DHT22;11242;50.536;12.688;2022-10-29T09:54:58;20.90;99.90
22153;DHT22;11242;50.536;12.688;2022-10-29T09:57:28;20.80;99.90
22153;DHT22;11242;50.536;12.688;2022-10-29T09:59:58;20.80;99.90
22153;DHT22;11242;50.536;12.688;2022-10-29T10:02:37;20.80;99.90
22153;DHT22;11242;50.536;12.688;2022-10-29T10:07:38;21.10;99.90
22153;DHT22;11242;50.536;12.688;2022-10-29T10:10:06;21.10;99.90
22153;DHT22;11242;50.536;12.688;2022-10-29T10:15:26;21.20;99.90
22153;DHT22;11242;50.536;12.688;2022-10-29T10:18:01;21.20;99.90
22153;DHT22;11242;50.536;12.688;2022-10-29T10:20:38;21.30;99.90
22153;DHT22;11242;50.536;12.688;2022-10-29T10:23:22;21.40;99.90
22153;DHT22;11242;50.536;12.688;2022-10-29T10:25:50;21.40;99.90
22153;DHT22;11242;50.536;12.688;2022-10-29T10:30:44;21.70;99.90
22153;DHT22;11242;50.536;12.688;2022-10-29T10:33:17;21.80;99.90
22153;DHT22;11242;50.536;12.688;2022-10-29T10:35:46;21.70;99.90
22153;DHT22;11242;50.536;12.688;2022-10-29T10:38:12;21.80;99.90
22153;DHT22;11242;50.536;12.688;2022-10-29T10:40:40;21.80;99.90
22153;DHT22;11242;50.536;12.688;2022-10-29T10:43:20;21.60;99.90
22153;DHT22;11242;50.536;12.688;2022-10-29T10:45:59;21.60;99.90
22153;DHT22;11242;50.536;12.688;2022-10-29T10:48:26;21.60;99.90
22153;DHT22;11242;50.536;12.688;2022-10-29T10:51:24;21.70;99.90
22153;DHT22;11242;50.536;12.688;2022-10-29T10:53:51;21.70;99.90
22153;DHT22;11242;50.536;12.688;2022-10-29T10:56:19;21.70;99.90
22153;DHT22;11242;50.536;12.688;2022-10-29T10:58:59;21.70;99.90
22153;DHT22;11242;50.536;12.688;2022-10-29T11:01:33;21.60;99.90
22153;DHT22;11242;50.536;12.688;2022-10-29T11:04:18;21.70;99.90
22153;DHT22;11242;50.536;12.688;2022-10-29T11:06:47;21.60;99.90
22153;DHT22;11242;50.536;12.688;2022-10-29T11:09:30;21.50;99.90
22153;DHT22;11242;50.536;12.688;2022-10-29T11:14:53;21.70;99.90
22153;DHT22;11242;50.536;12.688;2022-10-29T11:17:30;22.00;99.90
22153;DHT22;11242;50.536;12.688;2022-10-29T11:20:01;22.20;99.60
22153;DHT22;11242;50.536;12.688;2022-10-29T11:25:20;22.40;98.90
22153;DHT22;11242;50.536;12.688;2022-10-29T11:28:14;22.60;99.10
22153;DHT22;11242;50.536;12.688;2022-10-29T11:30:49;22.70;99.30
22153;DHT22;11242;50.536;12.688;2022-10-29T11:33:34;23.00;98.90
22153;DHT22;11242;50.536;12.688;2022-10-29T11:36:18;22.90;98.20
22153;DHT22;11242;50.536;12.688;2022-10-29T11:38:51;22.70;98.40
22153;DHT22;11242;50.536;12.688;2022-10-29T11:41:31;22.50;98.70
22153;DHT22;11242;50.536;12.688;2022-10-29T11:43:58;22.30;98.60
22153;DHT22;11242;50.536;12.688;2022-10-29T11:57:35;22.60;96.70
22153;DHT22;11242;50.536;12.688;2022-10-29T12:00:11;22.70;95.80
22153;DHT22;11242;50.536;12.688;2022-10-29T12:10:48;22.10;95.90
22153;DHT22;11242;50.536;12.688;2022-10-29T12:16:48;21.90;95.40
22153;DHT22;11242;50.536;12.688;2022-10-29T12:22:17;21.90;96.10
22153;DHT22;11242;50.536;12.688;2022-10-29T12:24:48;21.80;96.70
22153;DHT22;11242;50.536;12.688;2022-10-29T12:27:37;21.70;95.30
22153;DHT22;11242;50.536;12.688;2022-10-29T12:30:10;21.60;94.90
22153;DHT22;11242;50.536;12.688;2022-10-29T12:33:08;21.60;96.40
22153;DHT22;11242;50.536;12.688;2022-10-29T12:38:16;21.60;95.30
22153;DHT22;11242;50.536;12.688;2022-10-29T12:40:45;21.60;95.50
22153;DHT22;11242;50.536;12.688;2022-10-29T12:43:22;21.70;95.30
22153;DHT22;11242;50.536;12.688;2022-10-29T12:48:51;21.80;96.00
22153;DHT22;11242;50.536;12.688;2022-10-29T12:54:29;21.70;95.80
22153;DHT22;11242;50.536;12.688;2022-10-29T12:57:17;21.70;96.70
22153;DHT22;11242;50.536;12.688;2022-10-29T12:59:44;21.80;95.50
22153;DHT22;11242;50.536;12.688;2022-10-29T13:07:32;22.10;95.80
22153;DHT22;11242;50.536;12.688;2022-10-29T13:17:56;22.20;96.60
22153;DHT22;11242;50.536;12.688;2022-10-29T13:20:32;22.10;96.70
22153;DHT22;11242;50.536;12.688;2022-10-29T13:23:00;21.90;96.90
22153;DHT22;11242;50.536;12.688;2022-10-29T13:27:58;21.60;97.20
22153;DHT22;11242;50.536;12.688;2022-10-29T13:32:52;21.60;97.70
22153;DHT22;11242;50.536;12.688;2022-10-29T13:43:00;21.70;98.40
22153;DHT22;11242;50.536;12.688;2022-10-29T13:45:26;21.70;99.70
22153;DHT22;11242;50.536;12.688;2022-10-29T13:48:03;21.60;99.90
22153;DHT22;11242;50.536;12.688;2022-10-29T13:50:29;21.50;99.60
22153;DHT22;11242;50.536;12.688;2022-10-29T13:52:58;21.40;99.80
22153;DHT22;11242;50.536;12.688;2022-10-29T13:55:25;21.20;99.90
22153;DHT22;11242;50.536;12.688;2022-10-29T13:58:03;21.20;99.90
22153;DHT22;11242;50.536;12.688;2022-10-29T14:00:31;21.20;99.90
22153;DHT22;11242;50.536;12.688;2022-10-29T14:03:11;21.20;99.90
22153;DHT22;11242;50.536;12.688;2022-10-29T14:05:55;21.10;99.90
22153;DHT22;11242;50.536;12.688;2022-10-29T14:10:56;20.90;99.90
22153;DHT22;11242;50.536;12.688;2022-10-29T14:13:34;21.00;99.90
22153;DHT22;11242;50.536;12.688;2022-10-29T14:18:36;21.00;99.90
22153;DHT22;11242;50.536;12.688;2022-10-29T14:21:05;20.90;99.90
22153;DHT22;11242;50.536;12.688;2022-10-29T14:23:31;20.80;99.90
22153;DHT22;11242;50.536;12.688;2022-10-29T14:25:59;20.80;99.90
22153;DHT22;11242;50.536;12.688;2022-10-29T14:28:32;20.90;99.90
22153;DHT22;11242;50.536;12.688;2022-10-29T14:31:03;20.80;99.90
22153;DHT22;11242;50.536;12.688;2022-10-29T14:33:32;20.80;99.90
22153;DHT22;11242;50.536;12.688;2022-10-29T14:36:12;20.50;99.90
22153;DHT22;11242;50.536;12.688;2022-10-29T14:38:46;20.30;99.90
22153;DHT22;11242;50.536;12.688;2022-10-29T14:41:14;20.20;99.90
22153;DHT22;11242;50.536;12.688;2022-10-29T14:43:39;20.10;99.90
22153;DHT22;11242;50.536;12.688;2022-10-29T14:46:25;20.10;99.90
22153;DHT22;11242;50.536;12.688;2022-10-29T14:49:01;20.10;99.90
22153;DHT22;11242;50.536;12.688;2022-10-29T14:51:40;20.00;99.90
22153;DHT22;11242;50.536;12.688;2022-10-29T14:54:22;20.00;99.90
22153;DHT22;11242;50.536;12.688;2022-10-29T14:56:58;19.90;99.90
22153;DHT22;11242;50.536;12.688;2022-10-29T14:59:27;19.90;99.90
22153;DHT22;11242;50.536;12.688;2022-10-29T15:01:57;19.70;99.90
22153;DHT22;11242;50.536;12.688;2022-10-29T15:04:30;19.60;99.90
22153;DHT22;11242;50.536;12.688;2022-10-29T15:09:49;19.30;99.90
22153;DHT22;11242;50.536;12.688;2022-10-29T15:12:25;19.10;99.90
22153;DHT22;11242;50.536;12.688;2022-10-29T15:15:07;19.00;99.90
22153;DHT22;11242;50.536;12.688;2022-10-29T15:17:33;19.00;99.90
22153;DHT22;11242;50.536;12.688;2022-10-29T15:20:05;18.80;99.90
22153;DHT22;11242;50.536;12.688;2022-10-29T15:22:38;18.60;99.90
22153;DHT22;11242;50.536;12.688;2022-10-29T15:25:10;18.60;99.90
22153;DHT22;11242;50.536;12.688;2022-10-29T15:27:38;18.60;99.90
22153;DHT22;11242;50.536;12.688;2022-10-29T15:30:05;18.60;99.90
22153;DHT22;11242;50.536;12.688;2022-10-29T15:32:31;18.60;99.90
22153;DHT22;11242;50.536;12.688;2022-10-29T15:34:57;18.60;99.90
22153;DHT22;11242;50.536;12.688;2022-10-29T15:40:13;18.70;99.90
22153;DHT22;11242;50.536;12.688;2022-10-29T15:42:40;18.70;99.90
22153;DHT22;11242;50.536;12.688;2022-10-29T15:47:38;18.60;99.90
22153;DHT22;11242;50.536;12.688;2022-10-29T15:50:08;18.60;99.90
22153;DHT22;11242;50.536;12.688;2022-10-29T15:52:39;18.60;99.90
22153;DHT22;11242;50.536;12.688;2022-10-29T15:55:26;18.50;99.90
22153;DHT22;11242;50.536;12.688;2022-10-29T15:57:58;18.50;99.90
22153;DHT22;11242;50.536;12.688;2022-10-29T16:00:24;18.60;99.90
22153;DHT22;11242;50.536;12.688;2022-10-29T16:02:50;18.60;99.90
22153;DHT22;11242;50.536;12.688;2022-10-29T16:05:16;18.60;99.90
22153;DHT22;11242;50.536;12.688;2022-10-29T16:07:43;18.50;99.90
22153;DHT22;11242;50.536;12.688;2022-10-29T16:10:18;18.50;99.90
22153;DHT22;11242;50.536;12.688;2022-10-29T16:12:45;18.50;99.90
22153;DHT22;11242;50.536;12.688;2022-10-29T16:15:13;18.40;99.90
22153;DHT22;11242;50.536;12.688;2022-10-29T16:17:38;18.30;99.90
22153;DHT22;11242;50.536;12.688;2022-10-29T16:20:05;18.20;99.90
22153;DHT22;11242;50.536;12.688;2022-10-29T16:22:30;18.20;99.90
22153;DHT22;11242;50.536;12.688;2022-10-29T16:24:56;18.20;99.90
22153;DHT22;11242;50.536;12.688;2022-10-29T16:27:22;18.10;99.90
22153;DHT22;11242;50.536;12.688;2022-10-29T16:29:47;18.20;99.90
22153;DHT22;11242;50.536;12.688;2022-10-29T16:32:18;18.30;99.90
22153;DHT22;11242;50.536;12.688;2022-10-29T16:34:45;18.30;99.90
22153;DHT22;11242;50.536;12.688;2022-10-29T16:37:13;18.30;99.90
22153;DHT22;11242;50.536;12.688;2022-10-29T16:39:40;18.20;99.90
22153;DHT22;11242;50.536;12.688;2022-10-29T16:42:06;18.30;99.90
22153;DHT22;11242;50.536;12.688;2022-10-29T16:44:31;18.20;99.90
22153;DHT22;11242;50.536;12.688;2022-10-29T16:46:57;18.20;99.90
22153;DHT22;11242;50.536;12.688;2022-10-29T16:49:24;18.20;99.90
22153;DHT22;11242;50.536;12.688;2022-10-29T16:51:50;18.10;99.90
22153;DHT22;11242;50.536;12.688;2022-10-29T16:54:16;18.00;99.90
22153;DHT22;11242;50.536;12.688;2022-10-29T16:56:41;18.00;99.90
22153;DHT22;11242;50.536;12.688;2022-10-29T16:59:07;18.00;99.90
22153;DHT22;11242;50.536;12.688;2022-10-29T17:01:32;18.00;99.90
22153;DHT22;11242;50.536;12.688;2022-10-29T17:03:58;17.90;99.90
22153;DHT22;11242;50.536;12.688;2022-10-29T17:06:23;17.70;99.90
22153;DHT22;11242;50.536;12.688;2022-10-29T17:08:49;17.50;99.90
22153;DHT22;11242;50.536;12.688;2022-10-29T17:11:15;17.40;99.90
22153;DHT22;11242;50.536;12.688;2022-10-29T17:13:40;17.20;99.90
22153;DHT22;11242;50.536;12.688;2022-10-29T17:16:10;17.10;99.90
22153;DHT22;11242;50.536;12.688;2022-10-29T17:18:39;17.00;99.90
22153;DHT22;11242;50.536;12.688;2022-10-29T17:21:05;16.90;99.90
22153;DHT22;11242;50.536;12.688;2022-10-29T17:23:31;16.70;99.90
22153;DHT22;11242;50.536;12.688;2022-10-29T17:25:57;16.60;99.90
22153;DHT22;11242;50.536;12.688;2022-10-29T17:28:24;16.60;99.90
22153;DHT22;11242;50.536;12.688;2022-10-29T17:30:50;16.40;99.90
22153;DHT22;11242;50.536;12.688;2022-10-29T17:33:16;16.30;99.90
22153;DHT22;11242;50.536;12.688;2022-10-29T17:35:42;16.10;99.90